메인 페이지
METAR-TAF:

METAR-TAF

공항 :

앵커리지, 알래스카, 미국

테드 스티븐스 앵커리지 국제공항

위도: 61-10-28N, 경도: 149-59-46W, 고도: 44m

현재 날씨관측

예보는 1 시간 3분 전, 03:53시(UTC)에 발표되었습니다.
무풍
온도 -6°C
습도 86%
기압 1004 hPa
시정: 16.1km
고도 500ft 상공 구름 조금
고도 6500ft 상공 구름 조금
고도 13000ft 상공 구름 보통

METAR: PANC 200353Z 00000KT 10SM FEW005 FEW065 SCT130 M06/M08 A2965 RMK AO2 SLP045 I1000 T10611083 $

시각: 19:56 (04:56 UTC)

예보

예보는 58분 전, 03:58시(UTC)에 발표되었습니다.
예보 대상 시간: 20일 04시부터 21일 06시까지 (UTC)
여러 방향의 바람 3kt
시정: 10km
고도 500ft 상공 구름 조금
고도 5000ft 상공 구름 보통
고도 15000ft 상공 구름 많음
시계 내 안개
일시적
20일 04시부터 20일 06시까지 (UTC)
시정: 3.2km
고도 500ft 상공 구름 많음
박무
20일 0600시부터 (UTC)
여러 방향의 바람 3kt
시정: 1.6km
고도 300ft 상공 구름 많음
박무, 시계 내 안개
20일 1800시부터 (UTC)
5kt
시정: 10km
고도 400ft 상공 구름 조금
고도 7000ft 상공 구름 보통
고도 12000ft 상공 구름 많음

TAF: PANC 200358Z 2004/2106 VRB03KT P6SM VCFG FEW005 SCT050 BKN150 TEMPO 2004/2006 2SM BR BKN005 FM200600 VRB03KT 1SM BR VCFG BKN003 FM201800 35005KT P6SM FEW004 SCT070 BKN120

4,000개 이상의 공항 관측 자료 및 예보 (METAR 및 TAF 보고).

지도상에서 검색 가능한 기상관측소가 노란 점과 빨간 점으로 표시되어 있습니다.

기상관측소 명을 보려면 표시 위로 마우스를 이동하세요.

날씨 관측과 예보를 보려면 클릭하세요.

지도 변경 : 확대하려면 엑스 표시가 있는 녹색 버튼, 축소하려면 빼기 표시가 있는 녹색 버튼, 다음 페이지의 지도를 보려면 녹색 화살표를 클릭하세요.


METAR-TAF: